sensor_id;sensor_type;location;lat;lon;timestamp;temperature;humidity
8709;DHT22;4391;48.678;9.280;2023-03-02T00:01:39;-0.50;1.00
8709;DHT22;4391;48.678;9.280;2023-03-02T00:04:11;-0.60;1.00
8709;DHT22;4391;48.678;9.280;2023-03-02T00:06:38;-0.60;1.00
8709;DHT22;4391;48.678;9.280;2023-03-02T00:09:05;-0.70;1.00
8709;DHT22;4391;48.678;9.280;2023-03-02T00:11:33;-0.70;1.00
8709;DHT22;4391;48.678;9.280;2023-03-02T00:14:00;-0.70;1.00
8709;DHT22;4391;48.678;9.280;2023-03-02T00:16:27;-0.70;1.00
8709;DHT22;4391;48.678;9.280;2023-03-02T00:18:54;-0.70;1.00
8709;DHT22;4391;48.678;9.280;2023-03-02T00:21:22;-0.80;1.00
8709;DHT22;4391;48.678;9.280;2023-03-02T00:23:49;-0.80;1.00
8709;DHT22;4391;48.678;9.280;2023-03-02T00:26:17;-0.80;1.00
8709;DHT22;4391;48.678;9.280;2023-03-02T00:28:44;-0.80;1.00
8709;DHT22;4391;48.678;9.280;2023-03-02T00:31:11;-0.90;1.00
8709;DHT22;4391;48.678;9.280;2023-03-02T00:33:37;-0.90;1.00
8709;DHT22;4391;48.678;9.280;2023-03-02T00:36:15;-0.90;1.00
8709;DHT22;4391;48.678;9.280;2023-03-02T00:38:43;-0.90;2.00
8709;DHT22;4391;48.678;9.280;2023-03-02T00:41:11;-0.90;7.90
8709;DHT22;4391;48.678;9.280;2023-03-02T00:43:38;-0.90;2.20
8709;DHT22;4391;48.678;9.280;2023-03-02T00:46:09;-0.90;7.90
8709;DHT22;4391;48.678;9.280;2023-03-02T00:48:36;-0.90;11.80
8709;DHT22;4391;48.678;9.280;2023-03-02T00:51:03;-0.90;9.40
8709;DHT22;4391;48.678;9.280;2023-03-02T00:53:30;-0.90;9.30
8709;DHT22;4391;48.678;9.280;2023-03-02T00:55:59;-0.90;9.50
8709;DHT22;4391;48.678;9.280;2023-03-02T00:58:27;-1.00;7.80
8709;DHT22;4391;48.678;9.280;2023-03-02T01:00:54;-1.00;13.60
8709;DHT22;4391;48.678;9.280;2023-03-02T01:03:21;-1.00;12.10
8709;DHT22;4391;48.678;9.280;2023-03-02T01:05:48;-1.00;19.10
8709;DHT22;4391;48.678;9.280;2023-03-02T01:08:20;-1.10;17.60
8709;DHT22;4391;48.678;9.280;2023-03-02T01:10:47;-1.10;16.30
8709;DHT22;4391;48.678;9.280;2023-03-02T01:13:16;-1.10;18.40
8709;DHT22;4391;48.678;9.280;2023-03-02T01:15:42;-1.10;21.50
8709;DHT22;4391;48.678;9.280;2023-03-02T01:18:10;-1.10;26.10
8709;DHT22;4391;48.678;9.280;2023-03-02T01:20:37;-1.10;30.30
8709;DHT22;4391;48.678;9.280;2023-03-02T01:23:03;-1.10;31.30
8709;DHT22;4391;48.678;9.280;2023-03-02T01:25:30;-1.10;26.80
8709;DHT22;4391;48.678;9.280;2023-03-02T01:27:57;-1.20;25.80
8709;DHT22;4391;48.678;9.280;2023-03-02T01:30:25;-1.20;29.90
8709;DHT22;4391;48.678;9.280;2023-03-02T01:32:52;-1.20;31.40
8709;DHT22;4391;48.678;9.280;2023-03-02T01:35:19;-1.20;33.40
8709;DHT22;4391;48.678;9.280;2023-03-02T01:37:46;-1.30;34.20
8709;DHT22;4391;48.678;9.280;2023-03-02T01:43:35;-1.30;38.50
8709;DHT22;4391;48.678;9.280;2023-03-02T01:46:04;-1.40;39.90
8709;DHT22;4391;48.678;9.280;2023-03-02T01:48:34;-1.40;38.40
8709;DHT22;4391;48.678;9.280;2023-03-02T01:51:03;-1.40;40.90
8709;DHT22;4391;48.678;9.280;2023-03-02T01:53:34;-1.40;48.00
8709;DHT22;4391;48.678;9.280;2023-03-02T01:56:03;-1.40;48.40
8709;DHT22;4391;48.678;9.280;2023-03-02T01:58:33;-1.50;49.10
8709;DHT22;4391;48.678;9.280;2023-03-02T02:01:00;-1.50;47.90
8709;DHT22;4391;48.678;9.280;2023-03-02T02:03:29;-1.50;49.60
8709;DHT22;4391;48.678;9.280;2023-03-02T02:06:03;-1.50;55.00
8709;DHT22;4391;48.678;9.280;2023-03-02T02:08:31;-1.50;59.60
8709;DHT22;4391;48.678;9.280;2023-03-02T02:10:59;-1.50;64.10
8709;DHT22;4391;48.678;9.280;2023-03-02T02:13:26;-1.50;64.20
8709;DHT22;4391;48.678;9.280;2023-03-02T02:15:53;-1.50;64.00
8709;DHT22;4391;48.678;9.280;2023-03-02T02:18:20;-1.50;68.00
8709;DHT22;4391;48.678;9.280;2023-03-02T02:20:51;-1.50;66.30
8709;DHT22;4391;48.678;9.280;2023-03-02T02:23:26;-1.50;70.50
8709;DHT22;4391;48.678;9.280;2023-03-02T02:26:06;-1.50;67.70
8709;DHT22;4391;48.678;9.280;2023-03-02T02:28:38;-1.50;68.80
8709;DHT22;4391;48.678;9.280;2023-03-02T02:31:12;-1.50;71.70
8709;DHT22;4391;48.678;9.280;2023-03-02T02:33:43;-1.60;70.20
8709;DHT22;4391;48.678;9.280;2023-03-02T02:36:15;-1.60;78.80
8709;DHT22;4391;48.678;9.280;2023-03-02T02:38:45;-1.60;75.30
8709;DHT22;4391;48.678;9.280;2023-03-02T02:41:18;-1.60;74.60
8709;DHT22;4391;48.678;9.280;2023-03-02T02:43:46;-1.60;78.40
8709;DHT22;4391;48.678;9.280;2023-03-02T02:46:13;-1.60;79.10
8709;DHT22;4391;48.678;9.280;2023-03-02T02:48:40;-1.60;79.30
8709;DHT22;4391;48.678;9.280;2023-03-02T02:51:11;-1.60;81.70
8709;DHT22;4391;48.678;9.280;2023-03-02T02:53:43;-1.70;79.90
8709;DHT22;4391;48.678;9.280;2023-03-02T02:56:14;-1.70;79.90
8709;DHT22;4391;48.678;9.280;2023-03-02T02:58:43;-1.70;82.40
8709;DHT22;4391;48.678;9.280;2023-03-02T03:01:13;-1.60;81.90
8709;DHT22;4391;48.678;9.280;2023-03-02T03:03:43;-1.60;82.10
8709;DHT22;4391;48.678;9.280;2023-03-02T03:06:17;-1.70;79.50
8709;DHT22;4391;48.678;9.280;2023-03-02T03:09:05;-1.70;83.90
8709;DHT22;4391;48.678;9.280;2023-03-02T03:11:35;-1.60;85.70
8709;DHT22;4391;48.678;9.280;2023-03-02T03:14:07;-1.60;87.10
8709;DHT22;4391;48.678;9.280;2023-03-02T03:16:35;-1.60;82.30
8709;DHT22;4391;48.678;9.280;2023-03-02T03:19:10;-1.70;82.20
8709;DHT22;4391;48.678;9.280;2023-03-02T03:21:37;-1.70;80.50
8709;DHT22;4391;48.678;9.280;2023-03-02T03:24:05;-1.70;88.50
8709;DHT22;4391;48.678;9.280;2023-03-02T03:26:33;-1.70;90.50
8709;DHT22;4391;48.678;9.280;2023-03-02T03:29:00;-1.60;92.00
8709;DHT22;4391;48.678;9.280;2023-03-02T03:31:27;-1.70;89.80
8709;DHT22;4391;48.678;9.280;2023-03-02T03:33:55;-1.70;90.10
8709;DHT22;4391;48.678;9.280;2023-03-02T03:36:25;-1.70;89.40
8709;DHT22;4391;48.678;9.280;2023-03-02T03:38:52;-1.70;89.70
8709;DHT22;4391;48.678;9.280;2023-03-02T03:41:19;-1.70;87.10
8709;DHT22;4391;48.678;9.280;2023-03-02T03:43:48;-1.70;81.20
8709;DHT22;4391;48.678;9.280;2023-03-02T03:46:15;-1.80;82.20
8709;DHT22;4391;48.678;9.280;2023-03-02T03:48:41;-1.80;85.30
8709;DHT22;4391;48.678;9.280;2023-03-02T03:51:09;-1.90;90.30
8709;DHT22;4391;48.678;9.280;2023-03-02T03:53:36;-1.80;92.60
8709;DHT22;4391;48.678;9.280;2023-03-02T03:56:03;-1.90;93.30
8709;DHT22;4391;48.678;9.280;2023-03-02T03:58:30;-1.90;94.40
8709;DHT22;4391;48.678;9.280;2023-03-02T04:00:59;-1.90;95.20
8709;DHT22;4391;48.678;9.280;2023-03-02T04:03:26;-1.90;94.40
8709;DHT22;4391;48.678;9.280;2023-03-02T04:05:53;-1.90;94.90
8709;DHT22;4391;48.678;9.280;2023-03-02T04:08:20;-2.00;94.50
8709;DHT22;4391;48.678;9.280;2023-03-02T04:10:47;-2.00;96.00
8709;DHT22;4391;48.678;9.280;2023-03-02T04:13:14;-2.00;98.60
8709;DHT22;4391;48.678;9.280;2023-03-02T04:15:40;-2.00;99.20
8709;DHT22;4391;48.678;9.280;2023-03-02T04:18:09;-2.00;98.70
8709;DHT22;4391;48.678;9.280;2023-03-02T04:20:36;-2.00;99.20
8709;DHT22;4391;48.678;9.280;2023-03-02T04:23:03;-2.00;98.50
8709;DHT22;4391;48.678;9.280;2023-03-02T04:25:30;-2.00;98.60
8709;DHT22;4391;48.678;9.280;2023-03-02T04:27:57;-2.00;97.50
8709;DHT22;4391;48.678;9.280;2023-03-02T04:30:25;-2.00;95.90
8709;DHT22;4391;48.678;9.280;2023-03-02T04:32:52;-2.10;96.50
8709;DHT22;4391;48.678;9.280;2023-03-02T04:35:20;-2.00;98.30
8709;DHT22;4391;48.678;9.280;2023-03-02T04:37:47;-2.00;99.90
8709;DHT22;4391;48.678;9.280;2023-03-02T04:40:15;-2.00;99.90
8709;DHT22;4391;48.678;9.280;2023-03-02T04:42:42;-2.00;99.90
8709;DHT22;4391;48.678;9.280;2023-03-02T04:45:11;-2.00;99.90
8709;DHT22;4391;48.678;9.280;2023-03-02T04:47:39;-2.00;99.90
8709;DHT22;4391;48.678;9.280;2023-03-02T04:50:07;-2.00;99.90
8709;DHT22;4391;48.678;9.280;2023-03-02T04:52:36;-1.90;99.90
8709;DHT22;4391;48.678;9.280;2023-03-02T04:55:04;-1.80;99.90
8709;DHT22;4391;48.678;9.280;2023-03-02T04:57:31;-1.70;99.90
8709;DHT22;4391;48.678;9.280;2023-03-02T04:59:58;-1.60;99.40
8709;DHT22;4391;48.678;9.280;2023-03-02T05:02:24;-1.60;96.90
8709;DHT22;4391;48.678;9.280;2023-03-02T05:04:51;-1.40;93.40
8709;DHT22;4391;48.678;9.280;2023-03-02T05:07:18;-1.30;88.70
8709;DHT22;4391;48.678;9.280;2023-03-02T05:09:46;-1.20;77.50
8709;DHT22;4391;48.678;9.280;2023-03-02T05:12:13;-1.10;68.90
8709;DHT22;4391;48.678;9.280;2023-03-02T05:14:40;-1.00;62.80
8709;DHT22;4391;48.678;9.280;2023-03-02T05:17:06;-1.00;57.10
8709;DHT22;4391;48.678;9.280;2023-03-02T05:19:33;-0.90;51.30
8709;DHT22;4391;48.678;9.280;2023-03-02T05:22:00;-0.80;48.60
8709;DHT22;4391;48.678;9.280;2023-03-02T05:24:27;-0.80;44.50
8709;DHT22;4391;48.678;9.280;2023-03-02T05:26:55;-0.70;42.40
8709;DHT22;4391;48.678;9.280;2023-03-02T05:29:22;-0.60;41.80
8709;DHT22;4391;48.678;9.280;2023-03-02T05:31:49;-0.60;39.50
8709;DHT22;4391;48.678;9.280;2023-03-02T05:34:16;-0.50;37.50
8709;DHT22;4391;48.678;9.280;2023-03-02T05:36:44;-0.50;34.20
8709;DHT22;4391;48.678;9.280;2023-03-02T05:39:11;-0.40;33.70
8709;DHT22;4391;48.678;9.280;2023-03-02T05:41:39;-0.40;29.20
8709;DHT22;4391;48.678;9.280;2023-03-02T05:44:08;-0.30;23.50
8709;DHT22;4391;48.678;9.280;2023-03-02T05:46:36;-0.30;20.90
8709;DHT22;4391;48.678;9.280;2023-03-02T05:49:03;-0.20;16.90
8709;DHT22;4391;48.678;9.280;2023-03-02T05:51:30;-0.20;15.00
8709;DHT22;4391;48.678;9.280;2023-03-02T05:53:57;-0.10;13.50
8709;DHT22;4391;48.678;9.280;2023-03-02T05:56:24;-0.10;11.50
8709;DHT22;4391;48.678;9.280;2023-03-02T05:58:50;-0.10;4.20
8709;DHT22;4391;48.678;9.280;2023-03-02T06:01:19;0.00;1.10
8709;DHT22;4391;48.678;9.280;2023-03-02T06:03:45;0.00;1.00
8709;DHT22;4391;48.678;9.280;2023-03-02T06:06:12;0.10;1.00
8709;DHT22;4391;48.678;9.280;2023-03-02T06:08:40;0.10;1.00
8709;DHT22;4391;48.678;9.280;2023-03-02T06:11:07;0.20;1.00
8709;DHT22;4391;48.678;9.280;2023-03-02T06:13:34;0.20;1.00
8709;DHT22;4391;48.678;9.280;2023-03-02T06:16:01;0.30;1.00
8709;DHT22;4391;48.678;9.280;2023-03-02T06:18:30;0.30;1.00
8709;DHT22;4391;48.678;9.280;2023-03-02T06:20:57;0.40;1.00
8709;DHT22;4391;48.678;9.280;2023-03-02T06:23:24;0.40;1.00
8709;DHT22;4391;48.678;9.280;2023-03-02T06:25:51;0.40;1.00
8709;DHT22;4391;48.678;9.280;2023-03-02T06:28:18;0.50;1.00
8709;DHT22;4391;48.678;9.280;2023-03-02T06:30:47;0.50;1.00
8709;DHT22;4391;48.678;9.280;2023-03-02T06:33:14;0.50;1.00
8709;DHT22;4391;48.678;9.280;2023-03-02T06:35:44;0.60;1.00
8709;DHT22;4391;48.678;9.280;2023-03-02T06:38:10;0.60;1.00
8709;DHT22;4391;48.678;9.280;2023-03-02T06:40:37;0.70;1.00
8709;DHT22;4391;48.678;9.280;2023-03-02T06:43:04;0.70;1.00
8709;DHT22;4391;48.678;9.280;2023-03-02T06:45:31;0.70;1.00
8709;DHT22;4391;48.678;9.280;2023-03-02T06:47:59;0.70;1.00
8709;DHT22;4391;48.678;9.280;2023-03-02T06:50:26;0.90;1.00
8709;DHT22;4391;48.678;9.280;2023-03-02T06:52:55;1.00;1.00
8709;DHT22;4391;48.678;9.280;2023-03-02T06:55:22;1.00;1.00
8709;DHT22;4391;48.678;9.280;2023-03-02T06:57:49;1.00;1.00
8709;DHT22;4391;48.678;9.280;2023-03-02T07:00:17;1.10;1.00
8709;DHT22;4391;48.678;9.280;2023-03-02T07:02:49;1.20;1.00
8709;DHT22;4391;48.678;9.280;2023-03-02T07:05:17;1.30;1.00
8709;DHT22;4391;48.678;9.280;2023-03-02T07:07:44;1.30;1.00
8709;DHT22;4391;48.678;9.280;2023-03-02T07:10:13;1.40;1.00
8709;DHT22;4391;48.678;9.280;2023-03-02T07:12:40;1.40;1.00
8709;DHT22;4391;48.678;9.280;2023-03-02T07:15:09;1.40;1.00
8709;DHT22;4391;48.678;9.280;2023-03-02T07:17:38;1.50;1.00
8709;DHT22;4391;48.678;9.280;2023-03-02T07:20:07;1.50;1.00
8709;DHT22;4391;48.678;9.280;2023-03-02T07:22:34;1.50;1.00
8709;DHT22;4391;48.678;9.280;2023-03-02T07:25:01;1.50;1.00
8709;DHT22;4391;48.678;9.280;2023-03-02T07:27:29;1.60;1.00
8709;DHT22;4391;48.678;9.280;2023-03-02T07:29:55;1.60;1.00
8709;DHT22;4391;48.678;9.280;2023-03-02T07:32:23;1.70;1.00
8709;DHT22;4391;48.678;9.280;2023-03-02T07:34:49;1.70;1.00
8709;DHT22;4391;48.678;9.280;2023-03-02T07:37:16;1.80;1.00
8709;DHT22;4391;48.678;9.280;2023-03-02T07:39:43;1.90;99.90
8709;DHT22;4391;48.678;9.280;2023-03-02T07:42:11;2.00;99.90
8709;DHT22;4391;48.678;9.280;2023-03-02T07:44:39;2.10;99.90
8709;DHT22;4391;48.678;9.280;2023-03-02T07:47:06;2.20;99.90
8709;DHT22;4391;48.678;9.280;2023-03-02T07:49:33;2.30;99.90
8709;DHT22;4391;48.678;9.280;2023-03-02T07:52:01;2.40;97.80
8709;DHT22;4391;48.678;9.280;2023-03-02T07:54:28;2.50;1.00
8709;DHT22;4391;48.678;9.280;2023-03-02T07:56:55;2.50;1.00
8709;DHT22;4391;48.678;9.280;2023-03-02T07:59:22;2.60;1.00
8709;DHT22;4391;48.678;9.280;2023-03-02T08:01:50;2.60;1.00
8709;DHT22;4391;48.678;9.280;2023-03-02T08:04:17;2.60;99.90
8709;DHT22;4391;48.678;9.280;2023-03-02T08:06:44;2.50;99.90
8709;DHT22;4391;48.678;9.280;2023-03-02T08:09:11;2.50;99.90
8709;DHT22;4391;48.678;9.280;2023-03-02T08:11:38;2.50;1.00
8709;DHT22;4391;48.678;9.280;2023-03-02T08:14:04;2.50;1.00
8709;DHT22;4391;48.678;9.280;2023-03-02T08:16:31;2.50;1.00
8709;DHT22;4391;48.678;9.280;2023-03-02T08:19:00;2.50;1.00
8709;DHT22;4391;48.678;9.280;2023-03-02T08:21:27;2.60;1.00
8709;DHT22;4391;48.678;9.280;2023-03-02T08:23:54;2.60;99.90
8709;DHT22;4391;48.678;9.280;2023-03-02T08:26:20;2.70;99.90
8709;DHT22;4391;48.678;9.280;2023-03-02T08:28:47;2.80;99.90
8709;DHT22;4391;48.678;9.280;2023-03-02T08:31:14;2.90;99.90
8709;DHT22;4391;48.678;9.280;2023-03-02T08:33:41;3.00;1.00
8709;DHT22;4391;48.678;9.280;2023-03-02T08:36:12;3.20;1.00
8709;DHT22;4391;48.678;9.280;2023-03-02T08:38:39;3.30;1.00
8709;DHT22;4391;48.678;9.280;2023-03-02T08:41:08;3.50;99.90
8709;DHT22;4391;48.678;9.280;2023-03-02T08:43:35;3.70;99.90
8709;DHT22;4391;48.678;9.280;2023-03-02T08:46:03;3.80;1.00
8709;DHT22;4391;48.678;9.280;2023-03-02T08:48:30;3.90;99.90
8709;DHT22;4391;48.678;9.280;2023-03-02T08:50:58;4.00;99.90
8709;DHT22;4391;48.678;9.280;2023-03-02T08:53:28;4.20;1.00
8709;DHT22;4391;48.678;9.280;2023-03-02T08:55:55;4.30;1.00
8709;DHT22;4391;48.678;9.280;2023-03-02T08:58:22;4.50;99.90
8709;DHT22;4391;48.678;9.280;2023-03-02T09:00:49;4.70;99.90
8709;DHT22;4391;48.678;9.280;2023-03-02T09:03:16;4.90;99.90
8709;DHT22;4391;48.678;9.280;2023-03-02T09:05:43;5.10;13.30
8709;DHT22;4391;48.678;9.280;2023-03-02T09:08:11;5.20;12.30
8709;DHT22;4391;48.678;9.280;2023-03-02T09:10:39;5.40;1.00
8709;DHT22;4391;48.678;9.280;2023-03-02T09:13:06;5.60;1.00
8709;DHT22;4391;48.678;9.280;2023-03-02T09:15:33;5.90;1.00
8709;DHT22;4391;48.678;9.280;2023-03-02T09:18:00;5.90;1.00
8709;DHT22;4391;48.678;9.280;2023-03-02T09:20:26;6.10;1.00
8709;DHT22;4391;48.678;9.280;2023-03-02T09:22:53;6.30;1.00
8709;DHT22;4391;48.678;9.280;2023-03-02T09:25:20;6.40;1.00
8709;DHT22;4391;48.678;9.280;2023-03-02T09:27:48;6.60;99.90
8709;DHT22;4391;48.678;9.280;2023-03-02T09:30:15;6.80;99.90
8709;DHT22;4391;48.678;9.280;2023-03-02T09:32:42;7.00;99.90
8709;DHT22;4391;48.678;9.280;2023-03-02T09:35:09;7.10;99.90
8709;DHT22;4391;48.678;9.280;2023-03-02T09:37:36;7.10;99.90
8709;DHT22;4391;48.678;9.280;2023-03-02T09:40:08;7.20;99.90
8709;DHT22;4391;48.678;9.280;2023-03-02T09:42:59;7.20;99.90
8709;DHT22;4391;48.678;9.280;2023-03-02T09:45:55;7.30;99.90
8709;DHT22;4391;48.678;9.280;2023-03-02T09:48:35;7.40;99.90
8709;DHT22;4391;48.678;9.280;2023-03-02T09:51:15;7.60;99.90
8709;DHT22;4391;48.678;9.280;2023-03-02T09:53:52;7.60;99.90
8709;DHT22;4391;48.678;9.280;2023-03-02T09:56:23;7.80;99.90
8709;DHT22;4391;48.678;9.280;2023-03-02T09:58:55;8.00;99.90
8709;DHT22;4391;48.678;9.280;2023-03-02T10:01:33;8.10;99.90
8709;DHT22;4391;48.678;9.280;2023-03-02T10:04:08;8.20;99.90
8709;DHT22;4391;48.678;9.280;2023-03-02T10:06:37;8.30;99.90
8709;DHT22;4391;48.678;9.280;2023-03-02T10:09:03;8.30;99.90
8709;DHT22;4391;48.678;9.280;2023-03-02T10:11:38;8.50;99.90
8709;DHT22;4391;48.678;9.280;2023-03-02T10:14:16;8.50;99.90
8709;DHT22;4391;48.678;9.280;2023-03-02T10:16:47;8.20;99.90
8709;DHT22;4391;48.678;9.280;2023-03-02T10:19:20;8.30;99.90
8709;DHT22;4391;48.678;9.280;2023-03-02T10:21:54;8.30;99.90
8709;DHT22;4391;48.678;9.280;2023-03-02T10:24:28;8.40;99.90
8709;DHT22;4391;48.678;9.280;2023-03-02T10:26:59;8.60;99.90
8709;DHT22;4391;48.678;9.280;2023-03-02T10:29:38;8.80;99.90
8709;DHT22;4391;48.678;9.280;2023-03-02T10:32:16;8.80;99.90
8709;DHT22;4391;48.678;9.280;2023-03-02T10:34:44;9.10;99.90
8709;DHT22;4391;48.678;9.280;2023-03-02T10:37:14;9.10;99.90
8709;DHT22;4391;48.678;9.280;2023-03-02T10:39:42;9.20;99.90
8709;DHT22;4391;48.678;9.280;2023-03-02T10:42:14;9.00;99.90
8709;DHT22;4391;48.678;9.280;2023-03-02T10:44:45;9.00;99.90
8709;DHT22;4391;48.678;9.280;2023-03-02T10:47:22;9.10;99.90
8709;DHT22;4391;48.678;9.280;2023-03-02T10:49:49;9.40;99.90
8709;DHT22;4391;48.678;9.280;2023-03-02T10:52:18;10.20;99.90
8709;DHT22;4391;48.678;9.280;2023-03-02T10:54:45;10.70;99.90
8709;DHT22;4391;48.678;9.280;2023-03-02T10:57:28;11.10;99.90
8709;DHT22;4391;48.678;9.280;2023-03-02T11:00:00;12.00;99.90
8709;DHT22;4391;48.678;9.280;2023-03-02T11:02:28;12.80;99.90
8709;DHT22;4391;48.678;9.280;2023-03-02T11:04:58;13.50;99.90
8709;DHT22;4391;48.678;9.280;2023-03-02T11:07:36;13.90;99.90
8709;DHT22;4391;48.678;9.280;2023-03-02T11:10:06;14.20;99.90
8709;DHT22;4391;48.678;9.280;2023-03-02T11:12:35;14.50;99.90
8709;DHT22;4391;48.678;9.280;2023-03-02T11:15:16;15.10;99.90
8709;DHT22;4391;48.678;9.280;2023-03-02T11:17:45;15.40;99.90
8709;DHT22;4391;48.678;9.280;2023-03-02T11:20:21;16.00;99.90
8709;DHT22;4391;48.678;9.280;2023-03-02T11:22:56;16.80;99.90
8709;DHT22;4391;48.678;9.280;2023-03-02T11:25:28;17.70;99.90
8709;DHT22;4391;48.678;9.280;2023-03-02T11:28:00;18.00;99.90
8709;DHT22;4391;48.678;9.280;2023-03-02T11:30:33;18.30;99.90
8709;DHT22;4391;48.678;9.280;2023-03-02T11:33:04;18.40;99.90
8709;DHT22;4391;48.678;9.280;2023-03-02T11:35:37;18.40;99.90
8709;DHT22;4391;48.678;9.280;2023-03-02T11:38:12;18.40;99.90
8709;DHT22;4391;48.678;9.280;2023-03-02T11:40:46;19.00;99.90
8709;DHT22;4391;48.678;9.280;2023-03-02T11:43:14;19.30;99.90
8709;DHT22;4391;48.678;9.280;2023-03-02T11:45:44;19.10;99.90
8709;DHT22;4391;48.678;9.280;2023-03-02T11:48:17;18.70;99.90
8709;DHT22;4391;48.678;9.280;2023-03-02T11:50:53;17.70;99.90
8709;DHT22;4391;48.678;9.280;2023-03-02T11:53:24;17.10;99.90
8709;DHT22;4391;48.678;9.280;2023-03-02T11:55:54;16.20;99.90
8709;DHT22;4391;48.678;9.280;2023-03-02T11:58:23;15.40;99.90
8709;DHT22;4391;48.678;9.280;2023-03-02T12:00:52;14.50;99.90
8709;DHT22;4391;48.678;9.280;2023-03-02T12:03:23;13.80;99.90
8709;DHT22;4391;48.678;9.280;2023-03-02T12:06:04;13.40;99.90
8709;DHT22;4391;48.678;9.280;2023-03-02T12:08:35;14.50;99.90
8709;DHT22;4391;48.678;9.280;2023-03-02T12:11:06;15.90;99.90
8709;DHT22;4391;48.678;9.280;2023-03-02T12:13:35;16.50;99.90
8709;DHT22;4391;48.678;9.280;2023-03-02T12:16:16;17.70;99.90
8709;DHT22;4391;48.678;9.280;2023-03-02T12:18:46;18.90;99.90
8709;DHT22;4391;48.678;9.280;2023-03-02T12:21:16;19.80;99.90
8709;DHT22;4391;48.678;9.280;2023-03-02T12:23:58;18.60;99.90
8709;DHT22;4391;48.678;9.280;2023-03-02T12:26:33;19.00;99.90
8709;DHT22;4391;48.678;9.280;2023-03-02T12:29:04;19.90;99.90
8709;DHT22;4391;48.678;9.280;2023-03-02T12:31:44;20.00;99.90
8709;DHT22;4391;48.678;9.280;2023-03-02T12:34:34;21.20;99.90
8709;DHT22;4391;48.678;9.280;2023-03-02T12:37:11;22.10;99.90
8709;DHT22;4391;48.678;9.280;2023-03-02T12:42:47;22.80;99.90
8709;DHT22;4391;48.678;9.280;2023-03-02T12:45:26;22.90;99.90
8709;DHT22;4391;48.678;9.280;2023-03-02T12:48:01;22.50;99.90
8709;DHT22;4391;48.678;9.280;2023-03-02T12:50:31;21.90;99.90
8709;DHT22;4391;48.678;9.280;2023-03-02T12:53:00;21.30;99.90
8709;DHT22;4391;48.678;9.280;2023-03-02T12:55:27;20.60;99.90
8709;DHT22;4391;48.678;9.280;2023-03-02T12:57:56;21.50;99.90
8709;DHT22;4391;48.678;9.280;2023-03-02T13:00:26;22.40;99.90
8709;DHT22;4391;48.678;9.280;2023-03-02T13:02:55;23.00;99.90
8709;DHT22;4391;48.678;9.280;2023-03-02T13:05:25;22.80;99.90
8709;DHT22;4391;48.678;9.280;2023-03-02T13:07:56;23.80;99.90
8709;DHT22;4391;48.678;9.280;2023-03-02T13:10:28;24.40;99.90
8709;DHT22;4391;48.678;9.280;2023-03-02T13:12:56;24.80;99.90
8709;DHT22;4391;48.678;9.280;2023-03-02T13:15:23;25.10;99.90
8709;DHT22;4391;48.678;9.280;2023-03-02T13:17:55;24.20;99.90
8709;DHT22;4391;48.678;9.280;2023-03-02T13:20:27;24.20;99.90
8709;DHT22;4391;48.678;9.280;2023-03-02T13:22:54;22.80;99.90
8709;DHT22;4391;48.678;9.280;2023-03-02T13:25:27;23.00;99.90
8709;DHT22;4391;48.678;9.280;2023-03-02T13:27:56;23.20;99.90
8709;DHT22;4391;48.678;9.280;2023-03-02T13:30:27;24.00;99.90
8709;DHT22;4391;48.678;9.280;2023-03-02T13:32:59;24.50;99.90
8709;DHT22;4391;48.678;9.280;2023-03-02T13:35:30;25.40;99.90
8709;DHT22;4391;48.678;9.280;2023-03-02T13:38:00;25.70;99.90
8709;DHT22;4391;48.678;9.280;2023-03-02T13:40:38;25.40;99.90
8709;DHT22;4391;48.678;9.280;2023-03-02T13:43:37;25.50;99.90
8709;DHT22;4391;48.678;9.280;2023-03-02T13:46:06;24.80;99.90
8709;DHT22;4391;48.678;9.280;2023-03-02T13:48:53;23.80;99.90
8709;DHT22;4391;48.678;9.280;2023-03-02T13:51:22;24.20;99.90
8709;DHT22;4391;48.678;9.280;2023-03-02T13:53:52;24.60;99.90
8709;DHT22;4391;48.678;9.280;2023-03-02T13:56:23;24.30;99.90
8709;DHT22;4391;48.678;9.280;2023-03-02T13:58:51;23.80;99.90
8709;DHT22;4391;48.678;9.280;2023-03-02T14:01:18;22.30;99.90
8709;DHT22;4391;48.678;9.280;2023-03-02T14:03:45;21.30;99.90
8709;DHT22;4391;48.678;9.280;2023-03-02T14:06:12;21.40;99.90
8709;DHT22;4391;48.678;9.280;2023-03-02T14:08:40;21.20;99.90
8709;DHT22;4391;48.678;9.280;2023-03-02T14:11:09;22.20;99.90
8709;DHT22;4391;48.678;9.280;2023-03-02T14:13:39;22.50;99.90
8709;DHT22;4391;48.678;9.280;2023-03-02T14:16:10;22.90;99.90
8709;DHT22;4391;48.678;9.280;2023-03-02T14:18:38;23.10;99.90
8709;DHT22;4391;48.678;9.280;2023-03-02T14:21:10;22.60;99.90
8709;DHT22;4391;48.678;9.280;2023-03-02T14:23:37;22.20;99.90
8709;DHT22;4391;48.678;9.280;2023-03-02T14:26:18;21.40;99.90
8709;DHT22;4391;48.678;9.280;2023-03-02T14:28:46;21.00;99.90
8709;DHT22;4391;48.678;9.280;2023-03-02T14:31:13;20.40;99.90
8709;DHT22;4391;48.678;9.280;2023-03-02T14:33:40;21.00;99.90
8709;DHT22;4391;48.678;9.280;2023-03-02T14:36:13;21.70;99.90
8709;DHT22;4391;48.678;9.280;2023-03-02T14:38:40;22.10;99.90
8709;DHT22;4391;48.678;9.280;2023-03-02T14:41:12;21.80;99.90
8709;DHT22;4391;48.678;9.280;2023-03-02T14:43:39;21.00;99.90
8709;DHT22;4391;48.678;9.280;2023-03-02T14:46:06;20.60;99.90
8709;DHT22;4391;48.678;9.280;2023-03-02T14:48:33;21.20;99.90
8709;DHT22;4391;48.678;9.280;2023-03-02T14:51:00;21.80;99.90
8709;DHT22;4391;48.678;9.280;2023-03-02T14:53:30;21.40;99.90
8709;DHT22;4391;48.678;9.280;2023-03-02T14:55:58;20.40;99.90
8709;DHT22;4391;48.678;9.280;2023-03-02T14:58:30;19.90;99.90
8709;DHT22;4391;48.678;9.280;2023-03-02T15:00:58;19.00;99.90
8709;DHT22;4391;48.678;9.280;2023-03-02T15:03:25;18.20;99.90
8709;DHT22;4391;48.678;9.280;2023-03-02T15:05:54;18.40;99.90
8709;DHT22;4391;48.678;9.280;2023-03-02T15:08:21;19.20;99.90
8709;DHT22;4391;48.678;9.280;2023-03-02T15:10:49;19.80;99.90
8709;DHT22;4391;48.678;9.280;2023-03-02T15:13:16;20.20;99.90
8709;DHT22;4391;48.678;9.280;2023-03-02T15:15:44;20.20;99.90
8709;DHT22;4391;48.678;9.280;2023-03-02T15:18:12;20.00;99.90
8709;DHT22;4391;48.678;9.280;2023-03-02T15:20:39;19.30;99.90
8709;DHT22;4391;48.678;9.280;2023-03-02T15:23:06;18.10;99.90
8709;DHT22;4391;48.678;9.280;2023-03-02T15:25:33;17.00;99.90
8709;DHT22;4391;48.678;9.280;2023-03-02T15:28:00;16.40;99.90
8709;DHT22;4391;48.678;9.280;2023-03-02T15:30:26;15.70;99.90
8709;DHT22;4391;48.678;9.280;2023-03-02T15:32:56;14.70;99.90
8709;DHT22;4391;48.678;9.280;2023-03-02T15:35:25;14.60;99.90
8709;DHT22;4391;48.678;9.280;2023-03-02T15:37:52;14.50;99.90
8709;DHT22;4391;48.678;9.280;2023-03-02T15:40:20;14.70;99.90
8709;DHT22;4391;48.678;9.280;2023-03-02T15:42:46;14.30;99.90
8709;DHT22;4391;48.678;9.280;2023-03-02T15:45:13;14.40;99.90
8709;DHT22;4391;48.678;9.280;2023-03-02T15:47:40;14.60;99.90
8709;DHT22;4391;48.678;9.280;2023-03-02T15:50:10;14.50;99.90
8709;DHT22;4391;48.678;9.280;2023-03-02T15:52:37;14.80;99.90
8709;DHT22;4391;48.678;9.280;2023-03-02T15:55:04;14.60;99.90
8709;DHT22;4391;48.678;9.280;2023-03-02T15:57:35;14.60;99.90
8709;DHT22;4391;48.678;9.280;2023-03-02T16:00:03;14.70;99.90
8709;DHT22;4391;48.678;9.280;2023-03-02T16:02:30;14.40;99.90
8709;DHT22;4391;48.678;9.280;2023-03-02T16:04:56;14.10;99.90
8709;DHT22;4391;48.678;9.280;2023-03-02T16:07:25;14.20;99.90
8709;DHT22;4391;48.678;9.280;2023-03-02T16:09:51;14.00;99.90
8709;DHT22;4391;48.678;9.280;2023-03-02T16:12:18;14.00;99.90
8709;DHT22;4391;48.678;9.280;2023-03-02T16:14:47;13.50;99.90
8709;DHT22;4391;48.678;9.280;2023-03-02T16:17:14;13.30;99.90
8709;DHT22;4391;48.678;9.280;2023-03-02T16:19:42;13.20;99.90
8709;DHT22;4391;48.678;9.280;2023-03-02T16:22:09;12.90;99.90
8709;DHT22;4391;48.678;9.280;2023-03-02T16:24:37;12.50;99.90
8709;DHT22;4391;48.678;9.280;2023-03-02T16:27:04;11.90;99.90
8709;DHT22;4391;48.678;9.280;2023-03-02T16:29:30;11.40;99.90